Terminal Aerodrome Forecast
Issued by NWS

Home | Current Version | Previous Version | Text Only | Print | Product List | Glossary On
Versions: 1 2 3 4 5 6 7 8 9 10 11 12 13 14 15 16 17 18 19 20 21 22 23 24 25 26 27 28 29 30
000
FTUS43 KSGF 211500 AAB
TAFBBG
TAF AMD
KBBG 211542Z 2116/2212 16007KT 6SM BR SCT006 OVC025
      TEMPO 2116/2119 5SM BR BKN006 OVC025
     FM211900 14009KT P6SM OVC020
     FM220000 14010KT P6SM OVC040=

USA.gov is the U.S. government's official web portal to all federal, state and local government web resources and services.